Time;durP1;ratioP1;P1;durP2;ratioP2;P2;SDS_P1;SDS_P2;PMS_P1;PMS_P2;Temp;Humidity;BMP_temperature;BMP_pressure;BME280_temperature;BME280_humidity;BME280_pressure;Samples;Min_cycle;Max_cycle;Signal;HPM_P1;HPM_P2
2024/03/14 06:42:01;;;;;;;3.08;1.67;;;;;;;;;;10597911;27;20735;-82
2024/03/14 06:47:02;;;;;;;1.88;1.67;;;;;;;;;;10581784;28;20077;-82
2024/03/14 06:52:06;;;;;;;2.05;1.50;;;;;;;;;;10581114;28;20023;-83
2024/03/14 06:57:09;;;;;;;1.95;1.48;;;;;;;;;;10587342;28;20024;-82
2024/03/14 07:02:10;;;;;;;3.95;2.67;;;;;;;;;;10615039;28;20020;-82
2024/03/14 07:07:11;;;;;;;;;;;;;;;;;;10606111;28;20165;-82
2024/03/14 07:12:12;;;;;;;7.25;4.43;;;;;;;;;;10580478;28;19904;-82
2024/03/14 07:17:13;;;;;;;;;;;;;;;;;;10581888;28;20020;-82
2024/03/14 07:22:16;;;;;;;5.30;2.40;;;;;;;;;;10580820;28;19908;-81
2024/03/14 07:27:17;;;;;;;2.53;2.22;;;;;;;;;;10587722;28;20028;-81
2024/03/14 07:32:19;;;;;;;4.75;3.05;;;;;;;;;;10584050;28;20413;-82
2024/03/14 07:37:23;;;;;;;2.83;1.90;;;;;;;;;;10581163;28;20054;-81
2024/03/14 07:42:24;;;;;;;6.65;5.10;;;;;;;;;;10580363;28;20521;-81
2024/03/14 07:47:26;;;;;;;4.65;3.67;;;;;;;;;;10582010;28;20050;-81
2024/03/14 07:52:27;;;;;;;6.43;3.47;;;;;;;;;;10554312;28;20028;-81
2024/03/14 07:57:28;;;;;;;6.55;3.78;;;;;;;;;;10460604;22;20140;-83
2024/03/14 08:02:35;;;;;;;4.35;3.30;;;;;;;;;;10429724;28;20018;-83
2024/03/14 08:07:39;;;;;;;3.38;2.00;;;;;;;;;;10465860;28;20064;-80
2024/03/14 08:12:42;;;;;;;2.85;1.70;;;;;;;;;;10466529;28;20029;-81
2024/03/14 08:17:50;;;;;;;3.30;2.17;;;;;;;;;;10467433;28;20071;-80
2024/03/14 08:22:52;;;;;;;4.05;2.00;;;;;;;;;;10466433;28;20024;-81
2024/03/14 08:27:53;;;;;;;5.65;3.63;;;;;;;;;;10467107;28;20476;-81
2024/03/14 08:33:00;;;;;;;3.40;3.08;;;;;;;;;;10471690;28;20043;-82
2024/03/14 08:38:08;;;;;;;5.65;3.67;;;;;;;;;;10467775;28;20171;-82
2024/03/14 08:43:16;;;;;;;5.13;3.28;;;;;;;;;;10488773;28;20445;-82
2024/03/14 08:48:36;;;;;;;3.38;2.05;;;;;;;;;;10500749;28;20025;-82
2024/03/14 08:59:04;;;;;;;3.67;2.30;;;;;;;;;;10476697;28;20033;-82
2024/03/14 09:04:05;;;;;;;3.25;2.17;;;;;;;;;;10480177;28;20126;-82
2024/03/14 09:09:06;;;;;;;2.47;1.83;;;;;;;;;;10474469;28;20048;-81
2024/03/14 09:14:17;;;;;;;2.50;1.70;;;;;;;;;;10467969;28;20172;-82
2024/03/14 09:19:19;;;;;;;2.42;1.40;;;;;;;;;;10470514;28;20059;-81
2024/03/14 09:24:22;;;;;;;2.95;1.40;;;;;;;;;;10468995;28;20025;-81
2024/03/14 09:29:28;;;;;;;2.75;1.55;;;;;;;;;;10474106;28;20489;-85
2024/03/14 09:34:38;;;;;;;2.53;1.67;;;;;;;;;;10468063;28;20025;-83
2024/03/14 09:39:45;;;;;;;3.25;1.60;;;;;;;;;;10470425;28;20025;-83
2024/03/14 09:44:51;;;;;;;2.28;1.45;;;;;;;;;;10466454;28;20029;-83
2024/03/14 09:50:02;;;;;;;3.22;1.63;;;;;;;;;;10507414;28;20040;-83
2024/03/14 09:55:13;;;;;;;3.58;1.40;;;;;;;;;;10507915;28;20036;-83
2024/03/14 10:00:25;;;;;;;2.85;1.63;;;;;;;;;;10502095;28;20036;-83
2024/03/14 10:05:44;;;;;;;3.90;2.60;;;;;;;;;;10508304;28;20039;-83
2024/03/14 10:11:08;;;;;;;3.22;1.90;;;;;;;;;;10492682;28;20052;-84
2024/03/14 10:16:15;;;;;;;4.15;2.90;;;;;;;;;;10518924;28;20035;-83
2024/03/14 10:21:16;;;;;;;2.95;1.80;;;;;;;;;;10513584;28;20044;-83
2024/03/14 10:26:22;;;;;;;2.65;2.22;;;;;;;;;;10492930;28;20067;-84
2024/03/14 10:31:30;;;;;;;3.97;1.80;;;;;;;;;;10511848;28;20032;-83
2024/03/14 10:37:06;;;;;;;7.05;2.08;;;;;;;;;;10522968;28;20033;-84
2024/03/14 10:42:27;;;;;;;4.13;2.00;;;;;;;;;;10486970;28;20029;-84
2024/03/14 10:53:16;;;;;;;3.15;1.80;;;;;;;;;;10510802;28;20063;-84
2024/03/14 10:58:44;;;;;;;2.35;1.40;;;;;;;;;;10510218;28;20028;-86
2024/03/14 11:03:49;;;;;;;5.13;3.30;;;;;;;;;;10499339;28;20056;-84
2024/03/14 11:09:11;;;;;;;4.85;2.17;;;;;;;;;;10515473;28;20513;-85
2024/03/14 11:14:38;;;;;;;3.10;1.67;;;;;;;;;;10514047;28;20071;-83
2024/03/14 11:20:15;;;;;;;2.97;1.92;;;;;;;;;;10489736;28;20033;-83
2024/03/14 11:31:11;;;;;;;3.55;1.60;;;;;;;;;;10469085;28;20115;-83
2024/03/14 11:36:15;;;;;;;3.42;2.20;;;;;;;;;;10497033;28;20404;-83
2024/03/14 11:41:57;;;;;;;3.25;1.20;;;;;;;;;;10519546;28;20063;-83
2024/03/14 11:53:00;;;;;;;4.07;2.17;;;;;;;;;;10400516;28;20427;-86
2024/03/14 11:58:23;;;;;;;2.45;1.77;;;;;;;;;;10518700;28;20115;-86
2024/03/14 12:03:27;;;;;;;3.00;1.38;;;;;;;;;;10501642;28;20120;-87
2024/03/14 12:08:54;;;;;;;3.65;1.85;;;;;;;;;;10497447;28;20123;-87
2024/03/14 12:13:56;;;;;;;3.70;2.45;;;;;;;;;;10505904;28;20057;-86
2024/03/14 12:19:18;;;;;;;2.67;1.83;;;;;;;;;;10526151;28;20047;-86
2024/03/14 12:24:27;;;;;;;2.95;1.23;;;;;;;;;;10550057;28;20017;-86
2024/03/14 12:29:32;;;;;;;2.00;1.40;;;;;;;;;;10515836;28;20041;-86
2024/03/14 12:34:36;;;;;;;2.10;1.60;;;;;;;;;;10514920;28;20031;-86
2024/03/14 12:39:38;;;;;;;2.60;1.58;;;;;;;;;;10516588;28;20461;-86
2024/03/14 12:44:41;;;;;;;1.88;1.48;;;;;;;;;;10530844;28;20016;-86
2024/03/14 12:49:47;;;;;;;2.83;1.73;;;;;;;;;;10517103;28;20059;-83
2024/03/14 12:55:23;;;;;;;3.45;1.20;;;;;;;;;;10510990;28;20029;-82
2024/03/14 13:00:53;;;;;;;3.40;1.80;;;;;;;;;;10513837;28;20051;-85
2024/03/14 13:06:03;;;;;;;3.05;1.33;;;;;;;;;;10510338;28;20030;-83
2024/03/14 13:11:28;;;;;;;2.70;1.33;;;;;;;;;;10513770;28;20028;-83
2024/03/14 13:16:29;;;;;;;2.50;1.58;;;;;;;;;;10511181;28;20027;-83
2024/03/14 13:21:52;;;;;;;3.05;1.52;;;;;;;;;;10509427;28;20099;-83
2024/03/14 13:27:28;;;;;;;2.10;1.50;;;;;;;;;;10513302;28;20104;-84
2024/03/14 13:33:09;;;;;;;4.50;1.40;;;;;;;;;;10505013;28;20052;-83
2024/03/14 13:38:26;;;;;;;2.60;1.73;;;;;;;;;;10496700;28;20044;-82
2024/03/14 13:43:51;;;;;;;3.35;1.58;;;;;;;;;;10513380;28;20383;-83
2024/03/14 13:49:19;;;;;;;1.73;1.25;;;;;;;;;;10512540;28;20396;-83
2024/03/14 13:54:28;;;;;;;2.00;1.25;;;;;;;;;;10487592;28;20091;-81
2024/03/14 13:59:46;;;;;;;3.10;1.50;;;;;;;;;;10514567;28;20028;-83
2024/03/14 14:05:29;;;;;;;3.40;1.38;;;;;;;;;;10464436;28;20049;-83
2024/03/14 14:10:53;;;;;;;2.58;1.13;;;;;;;;;;10463620;28;20029;-83
2024/03/14 14:15:59;;;;;;;3.50;1.30;;;;;;;;;;10458443;28;20036;-83
2024/03/14 14:21:03;;;;;;;1.90;1.10;;;;;;;;;;10448466;28;20071;-84
2024/03/14 14:26:12;;;;;;;3.13;1.30;;;;;;;;;;10490404;28;20052;-85
2024/03/14 14:31:14;;;;;;;2.23;1.20;;;;;;;;;;10510596;28;20021;-83
2024/03/14 14:41:38;;;;;;;3.35;1.60;;;;;;;;;;10515220;28;20060;-86
2024/03/14 14:46:40;;;;;;;2.63;1.25;;;;;;;;;;10514675;28;20103;-85
2024/03/14 14:51:43;;;;;;;3.53;1.50;;;;;;;;;;10514452;28;20021;-85
2024/03/14 14:56:48;;;;;;;2.72;1.30;;;;;;;;;;10513482;28;20381;-85
2024/03/14 15:01:49;;;;;;;2.53;1.17;;;;;;;;;;10519892;28;20044;-84
2024/03/14 15:06:52;;;;;;;2.03;1.33;;;;;;;;;;10527200;28;20109;-84
2024/03/14 15:11:55;;;;;;;3.40;2.22;;;;;;;;;;10528413;28;20040;-85
2024/03/14 15:16:56;;;;;;;2.75;1.40;;;;;;;;;;10521924;28;20020;-85
2024/03/14 15:21:57;;;;;;;3.03;1.15;;;;;;;;;;10523068;28;20059;-83
2024/03/14 15:27:03;;;;;;;3.80;1.60;;;;;;;;;;10524118;28;20174;-84
2024/03/14 15:32:20;;;;;;;2.92;2.00;;;;;;;;;;10517235;28;20132;-82
2024/03/14 15:37:23;;;;;;;5.60;3.00;;;;;;;;;;10516775;28;20075;-79
2024/03/14 15:47:52;;;;;;;5.03;2.50;;;;;;;;;;10524052;28;20036;-86
2024/03/14 15:52:55;;;;;;;4.47;2.28;;;;;;;;;;10521441;28;20376;-85
2024/03/14 15:58:06;;;;;;;3.45;2.10;;;;;;;;;;10501396;28;20100;-86
2024/03/14 16:03:38;;;;;;;3.28;1.73;;;;;;;;;;10516720;28;20039;-86
2024/03/14 16:08:47;;;;;;;2.72;1.58;;;;;;;;;;10522670;28;20353;-86
2024/03/14 16:14:12;;;;;;;4.88;2.47;;;;;;;;;;10536860;28;20016;-85
2024/03/14 16:19:31;;;;;;;3.00;2.10;;;;;;;;;;10520222;28;20028;-85
2024/03/14 16:36:39;;;;;;;4.28;1.70;;;;;;;;;;10523833;28;20016;-82
2024/03/14 16:41:49;;;;;;;8.75;2.50;;;;;;;;;;10499572;28;20485;-82
2024/03/14 16:46:50;;;;;;;4.65;1.70;;;;;;;;;;10508467;28;20074;-81
2024/03/14 16:51:53;;;;;;;5.45;2.80;;;;;;;;;;10534605;28;20048;-82
2024/03/14 16:56:54;;;;;;;3.13;1.67;;;;;;;;;;10543905;28;20032;-82
2024/03/14 17:01:55;;;;;;;6.53;2.00;;;;;;;;;;10545344;28;20040;-82
2024/03/14 17:06:56;;;;;;;2.35;1.50;;;;;;;;;;10517535;28;20055;-82
2024/03/14 17:11:57;;;;;;;3.10;2.13;;;;;;;;;;10511475;28;20059;-82
2024/03/14 17:17:04;;;;;;;5.95;2.60;;;;;;;;;;10509409;28;20476;-83
2024/03/14 17:22:05;;;;;;;10.80;2.63;;;;;;;;;;10525267;28;20040;-83
2024/03/14 17:27:40;;;;;;;11.13;3.03;;;;;;;;;;10515222;28;20025;-84
2024/03/14 17:32:57;;;;;;;10.65;3.80;;;;;;;;;;10514036;28;20123;-84
2024/03/14 17:44:28;;;;;;;10.02;6.15;;;;;;;;;;10524456;28;20032;-83
2024/03/14 17:49:29;;;;;;;;;;;;;;;;;;10495656;28;20024;-84
2024/03/14 17:54:52;;;;;;;8.00;3.75;;;;;;;;;;10494624;28;19904;-84
2024/03/14 18:00:45;;;;;;;6.50;3.63;;;;;;;;;;10466613;28;20068;-84
2024/03/14 18:06:11;;;;;;;6.82;3.95;;;;;;;;;;10452403;28;20025;-85
2024/03/14 18:12:01;;;;;;;13.40;6.75;;;;;;;;;;10270109;29;20035;-86
2024/03/14 18:28:33;;;;;;;6.10;3.00;;;;;;;;;;10270016;28;20030;-83
2024/03/14 18:33:34;;;;;;;8.85;5.90;;;;;;;;;;10305650;28;20038;-83
2024/03/14 18:39:13;;;;;;;7.68;4.63;;;;;;;;;;10335544;28;20037;-83
2024/03/14 18:44:50;;;;;;;6.78;5.05;;;;;;;;;;10318001;28;20039;-83
2024/03/14 18:55:42;;;;;;;9.63;5.97;;;;;;;;;;10514494;28;20032;-84
2024/03/14 19:06:07;;;;;;;8.02;5.40;;;;;;;;;;10515936;28;20044;-82
2024/03/14 19:11:11;;;;;;;10.38;5.45;;;;;;;;;;10508844;28;20565;-82
2024/03/14 19:16:15;;;;;;;7.97;4.22;;;;;;;;;;10502916;28;20017;-82
2024/03/14 19:21:23;;;;;;;8.02;4.47;;;;;;;;;;10504026;28;20024;-82
2024/03/14 19:26:30;;;;;;;5.82;3.78;;;;;;;;;;10504804;28;20500;-82
2024/03/14 19:37:22;;;;;;;5.88;3.20;;;;;;;;;;10504524;28;20021;-82
2024/03/14 19:42:47;;;;;;;4.13;3.15;;;;;;;;;;10506484;28;20016;-82
2024/03/14 19:48:05;;;;;;;4.70;2.67;;;;;;;;;;10510998;28;20050;-83
2024/03/14 19:53:42;;;;;;;4.65;2.88;;;;;;;;;;10514197;28;20048;-83
2024/03/14 19:58:44;;;;;;;4.80;2.50;;;;;;;;;;10627809;22;20051;-82
2024/03/14 20:03:46;;;;;;;3.72;2.65;;;;;;;;;;10577336;28;20461;-80
